createdAt,value
2019-04-30T00:00:40.089Z,29.87
2019-04-30T00:03:11.483Z,29.07
2019-04-30T00:05:41.571Z,27.77
2019-04-30T00:08:10.811Z,30.60
2019-04-30T00:10:41.364Z,30.40
2019-04-30T00:13:14.857Z,29.03
2019-04-30T00:15:41.252Z,29.63
2019-04-30T00:18:10.274Z,28.53
2019-04-30T00:20:39.244Z,30.93
2019-04-30T00:23:08.175Z,30.33
2019-04-30T00:25:37.211Z,30.30
2019-04-30T00:28:08.867Z,28.87
2019-04-30T00:30:39.369Z,29.20
2019-04-30T00:33:08.666Z,30.23
2019-04-30T00:35:37.630Z,30.37
2019-04-30T00:38:06.622Z,30.53
2019-04-30T00:40:35.610Z,28.50
2019-04-30T00:43:08.877Z,29.37
2019-04-30T00:45:35.644Z,28.93
2019-04-30T00:48:05.981Z,29.90
2019-04-30T00:50:37.219Z,29.40
2019-04-30T00:53:12.348Z,29.87
2019-04-30T00:55:38.145Z,31.50
2019-04-30T00:58:09.130Z,30.47
2019-04-30T01:00:40.694Z,32.07
2019-04-30T01:03:11.339Z,30.10
2019-04-30T01:05:44.512Z,30.77
2019-04-30T01:08:11.108Z,28.07
2019-04-30T01:10:40.134Z,28.00
2019-04-30T01:13:11.943Z,30.57
2019-04-30T01:15:44.016Z,31.70
2019-04-30T01:18:10.360Z,30.87
2019-04-30T01:20:40.717Z,29.17
2019-04-30T01:23:12.280Z,33.03
2019-04-30T01:25:43.124Z,31.00
2019-04-30T01:28:16.254Z,29.20
2019-04-30T01:30:43.384Z,30.43
2019-04-30T01:33:13.961Z,28.87
2019-04-30T01:35:42.935Z,28.57
2019-04-30T01:38:12.816Z,28.37
2019-04-30T01:40:47.537Z,29.10
2019-04-30T01:43:13.919Z,27.73
2019-04-30T01:45:42.870Z,28.63
2019-04-30T01:48:12.794Z,28.70
2019-04-30T01:50:42.252Z,28.70
2019-04-30T01:53:13.141Z,29.47
2019-04-30T01:55:49.556Z,30.63
2019-04-30T01:58:33.451Z,30.93
2019-04-30T02:01:04.202Z,30.60
2019-04-30T02:03:33.164Z,32.33
2019-04-30T02:06:02.105Z,32.80
2019-04-30T02:08:31.068Z,32.97
2019-04-30T02:10:59.987Z,31.10
2019-04-30T02:13:29.523Z,30.93
2019-04-30T02:15:59.759Z,31.83
2019-04-30T02:18:29.646Z,31.00
2019-04-30T02:20:59.546Z,32.63
2019-04-30T02:23:29.669Z,32.27
2019-04-30T02:25:59.398Z,31.93
2019-04-30T02:28:29.123Z,32.70
2019-04-30T02:31:00.325Z,32.40
2019-04-30T02:33:30.833Z,31.50
2019-04-30T02:36:04.351Z,34.80
2019-04-30T02:38:34.964Z,33.93
2019-04-30T02:41:04.151Z,31.83
2019-04-30T02:43:34.875Z,31.87
2019-04-30T02:46:05.457Z,32.17
2019-04-30T02:48:39.399Z,36.50
2019-04-30T02:51:10.198Z,30.77
2019-04-30T02:54:03.425Z,31.60
2019-04-30T02:56:32.824Z,30.43
2019-04-30T02:59:03.768Z,30.40
2019-04-30T03:01:32.560Z,32.47
2019-04-30T03:04:03.161Z,31.20
2019-04-30T03:06:33.869Z,30.23
2019-04-30T03:09:03.931Z,28.70
2019-04-30T03:11:33.015Z,30.07
2019-04-30T03:14:01.981Z,29.70
2019-04-30T03:16:35.308Z,29.40
2019-04-30T03:19:09.820Z,29.90
2019-04-30T03:21:52.729Z,31.43
2019-04-30T03:24:21.751Z,29.33
2019-04-30T03:26:50.757Z,28.30
2019-04-30T03:29:23.442Z,30.10
2019-04-30T03:31:52.320Z,32.73
2019-04-30T03:34:26.021Z,28.77
2019-04-30T03:36:51.802Z,29.53
2019-04-30T03:39:20.740Z,29.10
2019-04-30T03:41:50.256Z,28.80
2019-04-30T03:44:25.496Z,30.17
2019-04-30T03:46:50.683Z,29.60
2019-04-30T03:49:20.428Z,30.37
2019-04-30T03:51:50.017Z,28.93
2019-04-30T03:54:19.523Z,29.20
2019-04-30T03:56:50.358Z,26.63
2019-04-30T03:59:20.063Z,27.23
2019-04-30T04:01:56.213Z,28.03
2019-04-30T04:04:26.840Z,27.23
2019-04-30T04:07:15.721Z,27.47
2019-04-30T04:09:59.786Z,25.83
2019-04-30T04:12:30.592Z,25.57
2019-04-30T04:15:03.242Z,26.80
2019-04-30T04:17:31.569Z,25.20
2019-04-30T04:20:00.832Z,26.50
2019-04-30T04:22:30.602Z,28.27
2019-04-30T04:25:00.356Z,27.13
2019-04-30T04:27:30.130Z,25.67
2019-04-30T04:30:01.163Z,24.20
2019-04-30T04:32:31.069Z,24.83
2019-04-30T04:35:00.518Z,26.33
2019-04-30T04:37:30.431Z,27.73
2019-04-30T04:39:59.830Z,25.83
2019-04-30T04:42:32.466Z,25.47
2019-04-30T04:44:59.841Z,27.03
2019-04-30T04:47:30.868Z,26.20
2019-04-30T04:50:00.703Z,26.43
2019-04-30T04:52:31.394Z,27.23
2019-04-30T04:55:00.914Z,25.07
2019-04-30T04:57:30.623Z,24.53
2019-04-30T05:00:06.829Z,24.80
2019-04-30T05:02:34.950Z,23.63
2019-04-30T05:05:09.483Z,24.27
2019-04-30T05:07:53.769Z,24.87
2019-04-30T05:10:23.045Z,22.70
2019-04-30T05:12:52.142Z,25.63
2019-04-30T05:15:21.362Z,24.77
2019-04-30T05:17:50.331Z,25.67
2019-04-30T05:20:19.602Z,23.27
2019-04-30T05:22:48.951Z,22.93
2019-04-30T05:25:18.658Z,24.50
2019-04-30T05:27:48.824Z,24.07
2019-04-30T05:30:19.871Z,24.70
2019-04-30T05:32:50.706Z,23.47
2019-04-30T05:35:19.983Z,24.43
2019-04-30T05:37:49.533Z,24.03
2019-04-30T05:40:19.013Z,23.03
2019-04-30T05:42:49.613Z,21.60
2019-04-30T05:45:19.341Z,24.60
2019-04-30T05:47:50.238Z,23.63
2019-04-30T05:50:19.964Z,22.67
2019-04-30T05:52:49.438Z,24.17
2019-04-30T05:55:19.754Z,24.43
2019-04-30T05:57:55.851Z,25.43
2019-04-30T06:00:20.148Z,23.27
2019-04-30T06:02:49.718Z,23.53
2019-04-30T06:05:19.052Z,24.13
2019-04-30T06:07:51.667Z,22.23
2019-04-30T06:10:20.443Z,26.17
2019-04-30T06:13:06.158Z,25.77
2019-04-30T06:15:39.749Z,23.50
2019-04-30T06:18:13.552Z,21.73
2019-04-30T06:20:39.458Z,28.67
2019-04-30T06:23:09.600Z,25.47
2019-04-30T06:25:55.727Z,24.83
2019-04-30T06:28:10.091Z,24.63
2019-04-30T06:30:39.777Z,23.80
2019-04-30T06:33:11.662Z,24.93
2019-04-30T06:35:40.150Z,26.97
2019-04-30T06:38:09.222Z,26.53
2019-04-30T06:40:39.118Z,27.13
2019-04-30T06:43:09.122Z,27.47
2019-04-30T06:45:38.955Z,27.03
2019-04-30T06:48:08.995Z,28.93
2019-04-30T06:50:39.322Z,29.13
2019-04-30T06:53:09.300Z,30.83
2019-04-30T06:55:39.247Z,28.97
2019-04-30T06:58:14.675Z,27.77
2019-04-30T07:00:40.398Z,30.70
2019-04-30T07:03:21.942Z,31.93
2019-04-30T07:05:50.908Z,32.03
2019-04-30T07:08:39.553Z,28.93
2019-04-30T07:11:22.244Z,32.60
2019-04-30T07:13:52.378Z,36.83
2019-04-30T07:16:21.609Z,32.33
2019-04-30T07:18:50.619Z,29.47
2019-04-30T07:21:19.983Z,29.63
2019-04-30T07:23:49.100Z,31.00
2019-04-30T07:26:19.688Z,31.23
2019-04-30T07:28:54.646Z,31.53
2019-04-30T07:31:19.522Z,31.07
2019-04-30T07:33:53.425Z,33.17
2019-04-30T07:36:19.671Z,30.50
2019-04-30T07:38:54.529Z,32.43
2019-04-30T07:41:19.490Z,33.60
2019-04-30T07:43:49.470Z,33.47
2019-04-30T07:46:19.977Z,35.97
2019-04-30T07:48:50.141Z,32.83
2019-04-30T07:51:21.171Z,31.27
2019-04-30T07:53:50.111Z,26.73
2019-04-30T07:56:25.833Z,30.67
2019-04-30T07:58:50.527Z,30.93
2019-04-30T08:01:19.796Z,29.20
2019-04-30T08:03:58.861Z,33.47
2019-04-30T08:06:30.654Z,41.67
2019-04-30T08:09:00.820Z,35.10
2019-04-30T08:11:29.419Z,37.40
2019-04-30T08:13:59.142Z,33.47
2019-04-30T08:16:28.826Z,31.93
2019-04-30T08:18:59.181Z,30.37
2019-04-30T08:21:28.844Z,32.67
2019-04-30T08:23:59.310Z,35.30
2019-04-30T08:26:28.852Z,34.50
2019-04-30T08:28:59.769Z,31.07
2019-04-30T08:31:29.256Z,33.50
2019-04-30T08:33:59.111Z,29.40
2019-04-30T08:36:29.867Z,28.57
2019-04-30T08:38:59.731Z,32.23
2019-04-30T08:41:29.375Z,34.77
2019-04-30T08:43:59.761Z,32.23
2019-04-30T08:46:29.039Z,31.43
2019-04-30T08:48:58.751Z,30.93
2019-04-30T08:51:30.296Z,31.63
2019-04-30T08:53:58.828Z,32.23
2019-04-30T08:56:29.544Z,30.70
2019-04-30T08:58:59.414Z,27.57
2019-04-30T09:01:30.092Z,30.43
2019-04-30T09:03:59.766Z,26.67
2019-04-30T09:06:29.872Z,35.53
2019-04-30T09:08:59.721Z,31.30
2019-04-30T09:11:35.569Z,29.97
2019-04-30T09:13:59.325Z,26.87
2019-04-30T09:16:29.492Z,27.77
2019-04-30T09:18:59.513Z,28.40
2019-04-30T09:21:30.038Z,27.00
2019-04-30T09:23:59.503Z,31.00
2019-04-30T09:26:29.151Z,28.63
2019-04-30T09:28:59.301Z,27.60
2019-04-30T09:31:29.666Z,28.50
2019-04-30T09:34:00.765Z,27.23
2019-04-30T09:36:29.520Z,26.20
2019-04-30T09:39:01.324Z,27.03
2019-04-30T09:41:29.203Z,26.47
2019-04-30T09:43:59.771Z,25.23
2019-04-30T09:46:29.955Z,28.30
2019-04-30T09:48:59.755Z,27.27
2019-04-30T09:51:30.563Z,26.40
2019-04-30T09:54:03.468Z,28.57
2019-04-30T09:56:31.287Z,25.80
2019-04-30T09:59:00.235Z,28.40
2019-04-30T10:01:31.864Z,25.17
2019-04-30T10:04:00.459Z,25.33
2019-04-30T10:06:39.027Z,22.77
2019-04-30T10:09:02.077Z,25.33
2019-04-30T10:11:38.334Z,24.50
2019-04-30T10:14:07.286Z,26.00
2019-04-30T10:16:46.721Z,21.33
2019-04-30T10:19:15.802Z,23.27
2019-04-30T10:21:44.853Z,24.13
2019-04-30T10:24:15.741Z,24.33
2019-04-30T10:26:44.759Z,26.00
2019-04-30T10:29:14.657Z,26.67
2019-04-30T10:31:43.643Z,25.90
2019-04-30T10:34:13.114Z,27.33
2019-04-30T10:36:42.163Z,27.43
2019-04-30T10:39:11.879Z,23.40
2019-04-30T10:41:40.946Z,26.37
2019-04-30T10:44:10.046Z,25.80
2019-04-30T10:46:39.639Z,25.77
2019-04-30T10:49:09.106Z,28.13
2019-04-30T10:51:38.900Z,26.27
2019-04-30T10:54:08.834Z,23.53
2019-04-30T10:56:38.479Z,28.63
2019-04-30T10:59:07.599Z,26.30
2019-04-30T11:01:36.841Z,23.03
2019-04-30T11:04:07.067Z,22.23
2019-04-30T11:06:36.150Z,20.40
2019-04-30T11:09:08.229Z,21.50
2019-04-30T11:11:39.308Z,21.70
2019-04-30T11:14:08.168Z,21.97
2019-04-30T11:16:37.120Z,26.13
2019-04-30T11:19:06.433Z,22.83
2019-04-30T11:21:35.890Z,22.83
2019-04-30T11:24:05.329Z,20.30
2019-04-30T11:26:34.927Z,18.47
2019-04-30T11:29:04.465Z,17.70
2019-04-30T11:31:44.395Z,14.37
2019-04-30T11:34:13.721Z,15.70
2019-04-30T11:36:42.674Z,14.40
2019-04-30T11:39:13.754Z,13.50
2019-04-30T11:41:42.718Z,16.33
2019-04-30T11:44:12.640Z,20.27
2019-04-30T11:46:59.696Z,17.40
2019-04-30T11:49:28.802Z,12.87
2019-04-30T11:51:57.770Z,13.17
2019-04-30T11:54:26.822Z,11.00
2019-04-30T11:56:55.852Z,10.00
2019-04-30T11:59:24.813Z,12.20
2019-04-30T12:01:55.719Z,12.80
2019-04-30T12:04:24.801Z,12.70
2019-04-30T12:06:55.420Z,11.07
2019-04-30T12:09:41.290Z,8.73
2019-04-30T12:12:10.301Z,8.07
2019-04-30T12:14:39.598Z,9.17
2019-04-30T12:17:08.607Z,9.27
2019-04-30T12:19:38.823Z,8.57
2019-04-30T12:22:07.862Z,7.90
2019-04-30T12:24:38.688Z,7.43
2019-04-30T12:27:07.602Z,8.00
2019-04-30T12:29:36.582Z,9.33
2019-04-30T12:32:05.688Z,10.63
2019-04-30T12:34:34.702Z,11.37
2019-04-30T12:37:04.549Z,9.67
2019-04-30T12:39:33.564Z,9.87
2019-04-30T12:42:02.676Z,9.40
2019-04-30T12:44:31.614Z,11.57
2019-04-30T12:47:00.606Z,11.00
2019-04-30T12:49:31.278Z,11.63
2019-04-30T12:52:16.922Z,13.63
2019-04-30T12:54:50.478Z,10.87
2019-04-30T12:57:24.072Z,9.33
2019-04-30T12:59:53.069Z,10.27
2019-04-30T13:02:22.097Z,9.60
2019-04-30T13:04:51.099Z,9.27
2019-04-30T13:07:21.199Z,8.77
2019-04-30T13:09:51.283Z,8.77
2019-04-30T13:12:21.147Z,9.18
2019-04-30T13:14:54.431Z,8.40
2019-04-30T13:17:21.109Z,10.17
2019-04-30T13:19:50.194Z,11.90
2019-04-30T13:22:19.227Z,11.08
2019-04-30T13:24:49.831Z,9.17
2019-04-30T13:27:19.589Z,9.80
2019-04-30T13:30:06.220Z,9.20
2019-04-30T13:32:36.886Z,7.87
2019-04-30T13:35:09.305Z,10.17
2019-04-30T13:37:40.146Z,7.47
2019-04-30T13:40:25.890Z,9.10
2019-04-30T13:42:56.214Z,12.90
2019-04-30T13:45:25.342Z,12.83
2019-04-30T13:47:54.413Z,10.23
2019-04-30T13:50:23.511Z,11.07
2019-04-30T13:52:52.467Z,8.87
2019-04-30T13:55:21.529Z,8.58
2019-04-30T13:57:50.570Z,8.87
2019-04-30T14:00:21.332Z,9.13
2019-04-30T14:03:00.923Z,7.37
2019-04-30T14:05:29.951Z,9.27
2019-04-30T14:08:01.668Z,9.97
2019-04-30T14:10:32.670Z,9.13
2019-04-30T14:13:03.340Z,8.77
2019-04-30T14:15:32.555Z,9.13
2019-04-30T14:18:01.638Z,8.67
2019-04-30T14:20:30.743Z,7.07
2019-04-30T14:22:59.765Z,9.23
2019-04-30T14:25:29.141Z,8.73
2019-04-30T14:27:59.316Z,8.50
2019-04-30T14:30:29.242Z,9.83
2019-04-30T14:32:59.333Z,9.37
2019-04-30T14:35:28.729Z,10.07
2019-04-30T14:37:59.582Z,10.07
2019-04-30T14:40:30.257Z,9.73
2019-04-30T14:43:13.926Z,11.10
2019-04-30T14:45:45.254Z,12.23
2019-04-30T14:48:23.681Z,13.07
2019-04-30T14:50:52.710Z,9.10
2019-04-30T14:53:30.532Z,11.07
2019-04-30T14:56:19.741Z,10.73
2019-04-30T14:58:56.179Z,10.33
2019-04-30T15:01:35.513Z,10.40
2019-04-30T15:04:04.540Z,9.87
2019-04-30T15:06:33.581Z,10.23
2019-04-30T15:09:03.570Z,11.43
2019-04-30T15:11:32.561Z,9.77
2019-04-30T15:14:02.235Z,10.10
2019-04-30T15:16:31.407Z,10.53
2019-04-30T15:19:00.903Z,9.83
2019-04-30T15:21:29.964Z,9.70
2019-04-30T15:24:01.654Z,11.27
2019-04-30T15:26:30.921Z,10.47
2019-04-30T15:29:00.248Z,11.67
2019-04-30T15:31:29.760Z,10.70
2019-04-30T15:34:03.068Z,13.93
2019-04-30T15:36:31.750Z,10.17
2019-04-30T15:39:02.401Z,10.63
2019-04-30T15:41:31.806Z,11.27
2019-04-30T15:44:00.815Z,12.57
2019-04-30T15:46:29.852Z,12.10
2019-04-30T15:48:58.930Z,12.33
2019-04-30T15:51:27.879Z,11.67
2019-04-30T15:53:56.893Z,11.00
2019-04-30T15:56:35.241Z,11.33
2019-04-30T15:59:14.502Z,11.17
2019-04-30T16:02:03.224Z,11.93
2019-04-30T16:04:52.210Z,13.30
2019-04-30T16:07:21.273Z,12.93
2019-04-30T16:10:08.878Z,12.10
2019-04-30T16:12:39.729Z,14.70
2019-04-30T16:15:10.034Z,12.67
2019-04-30T16:17:40.796Z,12.53
2019-04-30T16:20:09.912Z,15.47
2019-04-30T16:22:39.168Z,12.07
2019-04-30T16:25:08.668Z,15.80
2019-04-30T16:27:37.719Z,12.53
2019-04-30T16:30:09.429Z,13.87
2019-04-30T16:32:38.346Z,14.83
2019-04-30T16:35:08.969Z,13.33
2019-04-30T16:37:38.771Z,14.47
2019-04-30T16:40:10.420Z,12.20
2019-04-30T16:42:39.507Z,13.40
2019-04-30T16:45:09.298Z,14.00
2019-04-30T16:47:38.427Z,13.20
2019-04-30T16:50:08.970Z,12.37
2019-04-30T16:52:39.323Z,13.87
2019-04-30T16:55:08.612Z,16.00
2019-04-30T16:57:39.658Z,13.60
2019-04-30T17:00:10.414Z,13.03
2019-04-30T17:02:41.017Z,13.10
2019-04-30T17:05:23.694Z,12.27
2019-04-30T17:07:56.766Z,13.67
2019-04-30T17:10:30.347Z,12.37
2019-04-30T17:13:12.823Z,15.03
2019-04-30T17:15:46.153Z,12.63
2019-04-30T17:18:15.102Z,14.00
2019-04-30T17:20:44.057Z,14.03
2019-04-30T17:23:13.091Z,13.23
2019-04-30T17:25:42.212Z,14.10
2019-04-30T17:28:11.167Z,13.73
2019-04-30T17:30:40.192Z,14.60
2019-04-30T17:33:09.576Z,13.17
2019-04-30T17:35:38.851Z,15.33
2019-04-30T17:38:07.908Z,13.67
2019-04-30T17:40:38.861Z,15.63
2019-04-30T17:43:07.587Z,14.07
2019-04-30T17:45:39.200Z,15.33
2019-04-30T17:48:08.352Z,14.40
2019-04-30T17:50:39.506Z,14.73
2019-04-30T17:53:09.109Z,12.70
2019-04-30T17:55:39.186Z,15.00
2019-04-30T17:58:09.721Z,15.50
2019-04-30T18:00:40.803Z,12.80
2019-04-30T18:03:10.975Z,14.33
2019-04-30T18:05:40.103Z,14.43
2019-04-30T18:08:09.192Z,15.27
2019-04-30T18:10:38.654Z,13.47
2019-04-30T18:13:07.697Z,15.60
2019-04-30T18:15:36.705Z,15.50
2019-04-30T18:18:13.168Z,16.50
2019-04-30T18:20:46.736Z,14.33
2019-04-30T18:23:17.338Z,15.17
2019-04-30T18:25:51.134Z,15.77
2019-04-30T18:28:20.124Z,14.67
2019-04-30T18:30:49.207Z,15.47
2019-04-30T18:33:18.207Z,17.47
2019-04-30T18:35:48.673Z,15.03
2019-04-30T18:38:17.905Z,14.97
2019-04-30T18:40:46.898Z,20.80
2019-04-30T18:43:15.907Z,18.20
2019-04-30T18:45:44.933Z,20.40
2019-04-30T18:48:13.998Z,23.23
2019-04-30T18:50:42.948Z,20.07
2019-04-30T18:53:19.611Z,19.63
2019-04-30T18:55:50.497Z,18.87
2019-04-30T18:58:20.129Z,19.87
2019-04-30T19:00:49.573Z,19.07
2019-04-30T19:03:21.297Z,17.43
2019-04-30T19:05:51.087Z,19.00
2019-04-30T19:08:21.904Z,19.67
2019-04-30T19:10:55.429Z,20.50
2019-04-30T19:13:34.804Z,17.47
2019-04-30T19:16:25.290Z,21.57
2019-04-30T19:19:09.391Z,26.73
2019-04-30T19:21:40.380Z,36.20
2019-04-30T19:24:09.656Z,31.10
2019-04-30T19:26:38.925Z,16.87
2019-04-30T19:29:08.030Z,19.00
2019-04-30T19:31:37.057Z,18.13
2019-04-30T19:34:06.116Z,16.63
2019-04-30T19:36:49.228Z,18.23
2019-04-30T19:42:14.636Z,15.67
2019-04-30T19:57:51.071Z,19.87
2019-04-30T20:00:24.329Z,17.43
2019-04-30T20:02:53.924Z,17.53
2019-04-30T20:05:29.033Z,17.60
2019-04-30T20:08:02.363Z,17.83
2019-04-30T20:10:33.925Z,19.33
2019-04-30T20:13:04.525Z,19.33
2019-04-30T20:15:33.505Z,20.57
2019-04-30T20:18:09.102Z,22.03
2019-04-30T20:20:40.562Z,21.40
2019-04-30T20:23:09.570Z,19.43
2019-04-30T20:25:38.700Z,21.27
2019-04-30T20:28:12.030Z,20.90
2019-04-30T20:30:53.996Z,20.47
2019-04-30T20:33:22.995Z,20.47
2019-04-30T20:35:55.622Z,21.67
2019-04-30T20:41:24.565Z,24.10
2019-04-30T20:43:56.987Z,20.73
2019-04-30T20:46:34.620Z,21.00
2019-04-30T20:48:59.678Z,23.90
2019-04-30T20:51:29.300Z,22.00
2019-04-30T20:53:59.998Z,20.77
2019-04-30T20:56:39.809Z,20.80
2019-04-30T21:01:58.685Z,19.83
2019-04-30T21:04:29.471Z,20.43
2019-04-30T21:06:59.522Z,20.07
2019-04-30T21:09:28.692Z,20.93
2019-04-30T21:11:58.775Z,23.53
2019-04-30T21:14:28.149Z,23.50
2019-04-30T21:16:57.173Z,26.63
2019-04-30T21:19:26.276Z,29.77
2019-04-30T21:21:55.236Z,28.97
2019-04-30T21:24:25.770Z,26.80
2019-04-30T21:26:56.244Z,26.47
2019-04-30T21:29:26.672Z,26.77
2019-04-30T21:32:13.625Z,26.60
2019-04-30T21:34:47.499Z,28.43
2019-04-30T21:37:23.931Z,29.10
2019-04-30T21:39:58.555Z,27.57
2019-04-30T21:42:34.670Z,23.57
2019-04-30T21:45:36.318Z,23.60
2019-04-30T21:48:05.656Z,24.50
2019-04-30T21:57:00.996Z,27.37
2019-04-30T22:02:29.143Z,21.73
2019-04-30T22:04:58.186Z,23.83
2019-04-30T22:07:31.499Z,24.17
2019-04-30T22:10:01.858Z,23.33
2019-04-30T22:12:38.881Z,21.77
2019-04-30T22:15:09.199Z,28.73
2019-04-30T22:17:40.759Z,22.47
2019-04-30T22:20:11.410Z,22.40
2019-04-30T22:22:44.284Z,22.70
2019-04-30T22:25:14.082Z,23.67
2019-04-30T22:27:43.521Z,25.40
2019-04-30T22:30:13.919Z,26.30
2019-04-30T22:32:42.938Z,21.70
2019-04-30T22:35:39.924Z,23.47
2019-04-30T22:38:10.563Z,25.27
2019-04-30T22:40:48.823Z,26.03
2019-04-30T22:52:53.550Z,27.13
2019-04-30T22:55:24.154Z,26.43
2019-04-30T22:57:57.148Z,26.30
2019-04-30T23:00:30.742Z,27.67
2019-04-30T23:06:17.236Z,26.87
2019-04-30T23:08:50.442Z,27.50
2019-04-30T23:11:24.651Z,27.73
2019-04-30T23:13:53.846Z,26.50
2019-04-30T23:16:22.963Z,27.77
2019-04-30T23:18:51.933Z,26.50
2019-04-30T23:24:36.983Z,26.77
2019-04-30T23:30:17.819Z,27.23
2019-04-30T23:32:47.979Z,28.03
2019-04-30T23:35:26.043Z,27.60
2019-04-30T23:37:55.276Z,26.03
2019-04-30T23:40:50.316Z,25.70
